sensor_id;sensor_type;location;lat;lon;timestamp;pressure;altitude;pressure_sealevel;temperature;humidity
49835;BME280;35729;52.090;13.162;2022-08-14T00:01:21;100873.22;;;21.55;68.71
49835;BME280;35729;52.090;13.162;2022-08-14T00:03:50;100876.81;;;21.54;69.14
49835;BME280;35729;52.090;13.162;2022-08-14T00:06:19;100877.78;;;21.53;68.87
49835;BME280;35729;52.090;13.162;2022-08-14T00:08:47;100874.34;;;21.51;69.43
49835;BME280;35729;52.090;13.162;2022-08-14T00:11:15;100870.06;;;21.48;69.02
49835;BME280;35729;52.090;13.162;2022-08-14T00:13:47;100870.28;;;21.45;69.67
49835;BME280;35729;52.090;13.162;2022-08-14T00:16:15;100868.56;;;21.44;69.32
49835;BME280;35729;52.090;13.162;2022-08-14T00:18:44;100864.38;;;21.40;69.83
49835;BME280;35729;52.090;13.162;2022-08-14T00:21:12;100859.22;;;21.37;69.60
49835;BME280;35729;52.090;13.162;2022-08-14T00:23:41;100856.78;;;21.34;69.41
49835;BME280;35729;52.090;13.162;2022-08-14T00:26:09;100859.63;;;21.30;69.58
49835;BME280;35729;52.090;13.162;2022-08-14T00:28:38;100851.00;;;21.27;69.59
49835;BME280;35729;52.090;13.162;2022-08-14T00:31:09;100857.28;;;21.26;70.25
49835;BME280;35729;52.090;13.162;2022-08-14T00:33:39;100853.97;;;21.22;69.97
49835;BME280;35729;52.090;13.162;2022-08-14T00:36:08;100853.19;;;21.20;70.24
49835;BME280;35729;52.090;13.162;2022-08-14T00:38:36;100856.06;;;21.17;70.20
49835;BME280;35729;52.090;13.162;2022-08-14T00:41:06;100850.91;;;21.14;70.64
49835;BME280;35729;52.090;13.162;2022-08-14T00:43:36;100852.91;;;21.10;70.24
49835;BME280;35729;52.090;13.162;2022-08-14T00:46:07;100851.41;;;21.06;70.14
49835;BME280;35729;52.090;13.162;2022-08-14T00:48:38;100853.41;;;21.03;70.63
49835;BME280;35729;52.090;13.162;2022-08-14T00:51:09;100853.72;;;20.98;70.93
49835;BME280;35729;52.090;13.162;2022-08-14T00:53:38;100854.84;;;20.94;70.96
49835;BME280;35729;52.090;13.162;2022-08-14T00:56:08;100853.34;;;20.90;70.55
49835;BME280;35729;52.090;13.162;2022-08-14T00:58:37;100857.06;;;20.87;70.88
49835;BME280;35729;52.090;13.162;2022-08-14T01:01:08;100851.19;;;20.82;70.91
49835;BME280;35729;52.090;13.162;2022-08-14T01:03:41;100852.31;;;20.78;71.10
49835;BME280;35729;52.090;13.162;2022-08-14T01:06:11;100855.94;;;20.77;71.02
49835;BME280;35729;52.090;13.162;2022-08-14T01:08:42;100850.03;;;20.72;71.20
49835;BME280;35729;52.090;13.162;2022-08-14T01:11:12;100846.69;;;20.68;71.13
49835;BME280;35729;52.090;13.162;2022-08-14T01:13:42;100853.06;;;20.65;71.44
49835;BME280;35729;52.090;13.162;2022-08-14T01:16:13;100852.50;;;20.60;71.28
49835;BME280;35729;52.090;13.162;2022-08-14T01:18:47;100848.31;;;20.56;71.47
49835;BME280;35729;52.090;13.162;2022-08-14T01:21:33;100846.97;;;20.49;71.50
49835;BME280;35729;52.090;13.162;2022-08-14T01:24:04;100839.25;;;20.44;72.26
49835;BME280;35729;52.090;13.162;2022-08-14T01:26:35;100855.44;;;20.41;72.12
49835;BME280;35729;52.090;13.162;2022-08-14T01:29:04;100845.84;;;20.39;72.38
49835;BME280;35729;52.090;13.162;2022-08-14T01:31:35;100846.88;;;20.36;72.89
49835;BME280;35729;52.090;13.162;2022-08-14T01:34:05;100837.28;;;20.33;73.00
49835;BME280;35729;52.090;13.162;2022-08-14T01:36:36;100836.59;;;20.30;72.96
49835;BME280;35729;52.090;13.162;2022-08-14T01:39:07;100830.59;;;20.26;72.99
49835;BME280;35729;52.090;13.162;2022-08-14T01:41:36;100843.13;;;20.24;73.27
49835;BME280;35729;52.090;13.162;2022-08-14T01:44:08;100844.19;;;20.22;73.22
49835;BME280;35729;52.090;13.162;2022-08-14T01:46:40;100844.47;;;20.17;73.35
49835;BME280;35729;52.090;13.162;2022-08-14T01:49:13;100844.66;;;20.14;73.57
49835;BME280;35729;52.090;13.162;2022-08-14T01:51:44;100847.50;;;20.11;73.77
49835;BME280;35729;52.090;13.162;2022-08-14T01:54:17;100838.84;;;20.07;73.71
49835;BME280;35729;52.090;13.162;2022-08-14T01:56:47;100840.72;;;20.05;74.25
49835;BME280;35729;52.090;13.162;2022-08-14T01:59:22;100836.28;;;20.06;73.90
49835;BME280;35729;52.090;13.162;2022-08-14T02:01:58;100831.81;;;20.06;73.87
49835;BME280;35729;52.090;13.162;2022-08-14T02:04:30;100832.75;;;20.05;74.42
49835;BME280;35729;52.090;13.162;2022-08-14T02:07:02;100828.28;;;20.06;74.41
49835;BME280;35729;52.090;13.162;2022-08-14T02:09:31;100829.97;;;20.07;74.27
49835;BME280;35729;52.090;13.162;2022-08-14T02:12:05;100826.38;;;20.08;74.13
49835;BME280;35729;52.090;13.162;2022-08-14T02:14:35;100823.72;;;20.08;73.95
49835;BME280;35729;52.090;13.162;2022-08-14T02:17:05;100824.66;;;20.07;74.35
49835;BME280;35729;52.090;13.162;2022-08-14T02:19:34;100829.13;;;20.06;74.08
49835;BME280;35729;52.090;13.162;2022-08-14T02:22:05;100824.66;;;20.07;74.27
49835;BME280;35729;52.090;13.162;2022-08-14T02:24:34;100823.81;;;20.06;74.31
49835;BME280;35729;52.090;13.162;2022-08-14T02:27:03;100821.06;;;20.08;74.26
49835;BME280;35729;52.090;13.162;2022-08-14T02:29:32;100819.25;;;20.08;73.89
49835;BME280;35729;52.090;13.162;2022-08-14T02:32:00;100814.88;;;20.07;74.04
49835;BME280;35729;52.090;13.162;2022-08-14T02:34:31;100819.16;;;20.10;74.26
49835;BME280;35729;52.090;13.162;2022-08-14T02:37:03;100815.56;;;20.11;73.91
49835;BME280;35729;52.090;13.162;2022-08-14T02:39:38;100809.25;;;20.12;73.96
49835;BME280;35729;52.090;13.162;2022-08-14T02:42:09;100802.97;;;20.13;73.68
49835;BME280;35729;52.090;13.162;2022-08-14T02:44:38;100810.03;;;20.14;73.98
49835;BME280;35729;52.090;13.162;2022-08-14T02:47:07;100808.31;;;20.13;73.51
49835;BME280;35729;52.090;13.162;2022-08-14T02:49:36;100796.81;;;20.12;73.98
49835;BME280;35729;52.090;13.162;2022-08-14T02:52:05;100812.78;;;20.12;73.82
49835;BME280;35729;52.090;13.162;2022-08-14T02:54:37;100811.84;;;20.13;73.75
49835;BME280;35729;52.090;13.162;2022-08-14T02:57:06;100797.66;;;20.13;74.06
49835;BME280;35729;52.090;13.162;2022-08-14T02:59:35;100800.31;;;20.13;73.76
49835;BME280;35729;52.090;13.162;2022-08-14T03:02:04;100791.38;;;20.14;73.88
49835;BME280;35729;52.090;13.162;2022-08-14T03:04:33;100803.75;;;20.15;73.98
49835;BME280;35729;52.090;13.162;2022-08-14T03:07:02;100789.50;;;20.16;73.85
49835;BME280;35729;52.090;13.162;2022-08-14T03:09:30;100787.66;;;20.16;73.78
49835;BME280;35729;52.090;13.162;2022-08-14T03:12:02;100794.72;;;20.17;73.89
49835;BME280;35729;52.090;13.162;2022-08-14T03:14:30;100784.06;;;20.17;73.88
49835;BME280;35729;52.090;13.162;2022-08-14T03:17:02;100790.22;;;20.18;73.59
49835;BME280;35729;52.090;13.162;2022-08-14T03:19:34;100791.97;;;20.19;73.65
49835;BME280;35729;52.090;13.162;2022-08-14T03:22:03;100786.63;;;20.19;73.84
49835;BME280;35729;52.090;13.162;2022-08-14T03:24:32;100784.91;;;20.18;73.51
49835;BME280;35729;52.090;13.162;2022-08-14T03:27:03;100786.84;;;20.16;73.18
49835;BME280;35729;52.090;13.162;2022-08-14T03:29:32;100784.25;;;20.14;73.53
49835;BME280;35729;52.090;13.162;2022-08-14T03:32:00;100793.38;;;20.10;73.52
49835;BME280;35729;52.090;13.162;2022-08-14T03:34:29;100794.41;;;20.08;73.09
49835;BME280;35729;52.090;13.162;2022-08-14T03:36:58;100788.41;;;20.04;73.39
49835;BME280;35729;52.090;13.162;2022-08-14T03:39:26;100785.19;;;19.99;73.44
49835;BME280;35729;52.090;13.162;2022-08-14T03:41:55;100781.09;;;19.93;73.60
49835;BME280;35729;52.090;13.162;2022-08-14T03:44:33;100775.94;;;19.90;73.24
49835;BME280;35729;52.090;13.162;2022-08-14T03:47:03;100776.16;;;19.87;73.75
49835;BME280;35729;52.090;13.162;2022-08-14T03:49:32;100777.09;;;19.86;73.79
49835;BME280;35729;52.090;13.162;2022-08-14T03:52:01;100780.78;;;19.83;73.44
49835;BME280;35729;52.090;13.162;2022-08-14T03:54:30;100778.19;;;19.82;73.70
49835;BME280;35729;52.090;13.162;2022-08-14T03:57:00;100766.66;;;19.81;73.86
49835;BME280;35729;52.090;13.162;2022-08-14T03:59:29;100771.16;;;19.81;74.30
49835;BME280;35729;52.090;13.162;2022-08-14T04:02:01;100772.88;;;19.82;74.35
49835;BME280;35729;52.090;13.162;2022-08-14T04:04:30;100780.78;;;19.83;74.45
49835;BME280;35729;52.090;13.162;2022-08-14T04:06:59;100771.75;;;19.86;74.37
49835;BME280;35729;52.090;13.162;2022-08-14T04:09:27;100773.47;;;19.87;74.37
49835;BME280;35729;52.090;13.162;2022-08-14T04:11:56;100770.72;;;19.89;75.14
49835;BME280;35729;52.090;13.162;2022-08-14T04:14:25;100778.59;;;19.90;74.93
49835;BME280;35729;52.090;13.162;2022-08-14T04:16:53;100775.88;;;19.92;75.17
49835;BME280;35729;52.090;13.162;2022-08-14T04:19:25;100775.94;;;19.90;75.24
49835;BME280;35729;52.090;13.162;2022-08-14T04:21:53;100781.19;;;19.92;75.19
49835;BME280;35729;52.090;13.162;2022-08-14T04:24:21;100778.53;;;19.92;75.29
49835;BME280;35729;52.090;13.162;2022-08-14T04:26:50;100774.91;;;19.93;75.57
49835;BME280;35729;52.090;13.162;2022-08-14T04:29:19;100772.16;;;19.94;75.14
49835;BME280;35729;52.090;13.162;2022-08-14T04:31:47;100770.44;;;19.93;75.60
49835;BME280;35729;52.090;13.162;2022-08-14T04:34:16;100774.72;;;19.96;75.28
49835;BME280;35729;52.090;13.162;2022-08-14T04:36:47;100770.25;;;19.96;75.41
49835;BME280;35729;52.090;13.162;2022-08-14T04:39:28;100774.63;;;19.97;75.77
49835;BME280;35729;52.090;13.162;2022-08-14T04:42:09;100772.81;;;19.98;75.55
49835;BME280;35729;52.090;13.162;2022-08-14T04:44:49;100763.03;;;19.98;75.51
49835;BME280;35729;52.090;13.162;2022-08-14T04:47:18;100764.75;;;19.99;75.77
49835;BME280;35729;52.090;13.162;2022-08-14T04:50:00;100762.00;;;20.01;75.43
49835;BME280;35729;52.090;13.162;2022-08-14T04:52:38;100763.59;;;20.04;75.58
49835;BME280;35729;52.090;13.162;2022-08-14T04:55:08;100762.56;;;20.06;75.34
49835;BME280;35729;52.090;13.162;2022-08-14T04:57:37;100757.13;;;20.08;75.24
49835;BME280;35729;52.090;13.162;2022-08-14T05:00:08;100756.97;;;20.11;75.15
49835;BME280;35729;52.090;13.162;2022-08-14T05:02:37;100755.91;;;20.13;75.47
49835;BME280;35729;52.090;13.162;2022-08-14T05:05:06;100759.41;;;20.14;74.88
49835;BME280;35729;52.090;13.162;2022-08-14T05:07:34;100751.25;;;20.17;74.82
49835;BME280;35729;52.090;13.162;2022-08-14T05:10:07;100751.06;;;20.20;75.15
49835;BME280;35729;52.090;13.162;2022-08-14T05:12:37;100750.00;;;20.23;74.88
49835;BME280;35729;52.090;13.162;2022-08-14T05:15:07;100740.97;;;20.25;74.85
49835;BME280;35729;52.090;13.162;2022-08-14T05:17:40;100741.63;;;20.29;74.97
49835;BME280;35729;52.090;13.162;2022-08-14T05:20:09;100734.31;;;20.32;74.55
49835;BME280;35729;52.090;13.162;2022-08-14T05:22:38;100735.06;;;20.34;74.14
49835;BME280;35729;52.090;13.162;2022-08-14T05:25:09;100729.53;;;20.38;74.36
49835;BME280;35729;52.090;13.162;2022-08-14T05:27:37;100732.97;;;20.40;74.41
49835;BME280;35729;52.090;13.162;2022-08-14T05:30:08;100730.94;;;20.43;74.27
49835;BME280;35729;52.090;13.162;2022-08-14T05:32:37;100731.63;;;20.47;73.92
49835;BME280;35729;52.090;13.162;2022-08-14T05:35:06;100731.44;;;20.50;74.17
49835;BME280;35729;52.090;13.162;2022-08-14T05:37:36;100731.22;;;20.53;74.16
49835;BME280;35729;52.090;13.162;2022-08-14T05:40:05;100726.56;;;20.57;74.05
49835;BME280;35729;52.090;13.162;2022-08-14T05:42:37;100723.59;;;20.61;73.59
49835;BME280;35729;52.090;13.162;2022-08-14T05:45:07;100728.72;;;20.64;73.58
49835;BME280;35729;52.090;13.162;2022-08-14T05:47:38;100725.78;;;20.69;73.28
49835;BME280;35729;52.090;13.162;2022-08-14T05:50:09;100723.88;;;20.71;73.46
49835;BME280;35729;52.090;13.162;2022-08-14T05:52:38;100732.47;;;20.76;73.37
49835;BME280;35729;52.090;13.162;2022-08-14T05:55:08;100731.41;;;20.79;72.83
49835;BME280;35729;52.090;13.162;2022-08-14T05:57:51;100723.19;;;20.82;72.74
49835;BME280;35729;52.090;13.162;2022-08-14T06:00:21;100722.97;;;20.85;73.26
49835;BME280;35729;52.090;13.162;2022-08-14T06:02:50;100720.13;;;20.88;72.96
49835;BME280;35729;52.090;13.162;2022-08-14T06:05:22;100717.06;;;20.94;72.92
49835;BME280;35729;52.090;13.162;2022-08-14T06:07:50;100710.44;;;21.00;72.81
49835;BME280;35729;52.090;13.162;2022-08-14T06:10:19;100710.16;;;21.05;72.97
49835;BME280;35729;52.090;13.162;2022-08-14T06:12:50;100707.09;;;21.11;72.33
49835;BME280;35729;52.090;13.162;2022-08-14T06:15:19;100698.66;;;21.17;72.27
49835;BME280;35729;52.090;13.162;2022-08-14T06:17:49;100699.00;;;21.25;72.26
49835;BME280;35729;52.090;13.162;2022-08-14T06:20:18;100695.91;;;21.31;71.94
49835;BME280;35729;52.090;13.162;2022-08-14T06:22:47;100692.72;;;21.39;72.21
49835;BME280;35729;52.090;13.162;2022-08-14T06:25:16;100700.19;;;21.47;71.87
49835;BME280;35729;52.090;13.162;2022-08-14T06:27:46;100699.63;;;21.56;72.11
49835;BME280;35729;52.090;13.162;2022-08-14T06:30:19;100706.25;;;21.63;71.60
49835;BME280;35729;52.090;13.162;2022-08-14T06:32:48;100709.13;;;21.73;71.53
49835;BME280;35729;52.090;13.162;2022-08-14T06:35:17;100704.13;;;21.82;70.99
49835;BME280;35729;52.090;13.162;2022-08-14T06:37:49;100708.91;;;21.89;70.98
49835;BME280;35729;52.090;13.162;2022-08-14T06:40:20;100700.47;;;21.95;70.48
49835;BME280;35729;52.090;13.162;2022-08-14T06:42:49;100700.88;;;22.02;70.71
49835;BME280;35729;52.090;13.162;2022-08-14T06:45:21;100705.69;;;22.10;70.55
49835;BME280;35729;52.090;13.162;2022-08-14T06:47:50;100705.13;;;22.18;69.98
49835;BME280;35729;52.090;13.162;2022-08-14T06:50:20;100697.44;;;22.26;70.04
49835;BME280;35729;52.090;13.162;2022-08-14T06:52:49;100699.53;;;22.34;69.80
49835;BME280;35729;52.090;13.162;2022-08-14T06:55:18;100688.34;;;22.41;69.71
49835;BME280;35729;52.090;13.162;2022-08-14T06:57:48;100697.38;;;22.52;69.27
49835;BME280;35729;52.090;13.162;2022-08-14T07:00:18;100692.97;;;22.64;68.85
49835;BME280;35729;52.090;13.162;2022-08-14T07:02:50;100692.03;;;22.76;68.82
49835;BME280;35729;52.090;13.162;2022-08-14T07:05:31;100684.00;;;22.89;68.61
49835;BME280;35729;52.090;13.162;2022-08-14T07:08:14;100673.09;;;23.03;68.21
49835;BME280;35729;52.090;13.162;2022-08-14T07:10:43;100676.59;;;23.17;67.89
49835;BME280;35729;52.090;13.162;2022-08-14T07:13:13;100679.16;;;23.30;67.78
49835;BME280;35729;52.090;13.162;2022-08-14T07:15:44;100676.28;;;23.44;67.43
49835;BME280;35729;52.090;13.162;2022-08-14T07:18:19;100675.31;;;23.56;67.03
49835;BME280;35729;52.090;13.162;2022-08-14T07:20:47;100671.81;;;23.67;66.67
49835;BME280;35729;52.090;13.162;2022-08-14T07:23:17;100667.44;;;23.78;66.53
49835;BME280;35729;52.090;13.162;2022-08-14T07:25:49;100664.91;;;23.87;66.03
49835;BME280;35729;52.090;13.162;2022-08-14T07:28:20;100668.69;;;23.96;65.21
49835;BME280;35729;52.090;13.162;2022-08-14T07:30:49;100666.13;;;24.06;65.26
49835;BME280;35729;52.090;13.162;2022-08-14T07:33:24;100671.72;;;24.14;64.19
49835;BME280;35729;52.090;13.162;2022-08-14T07:35:53;100670.97;;;24.23;64.15
49835;BME280;35729;52.090;13.162;2022-08-14T07:38:22;100661.47;;;24.31;63.63
49835;BME280;35729;52.090;13.162;2022-08-14T07:40:52;100666.94;;;24.40;63.27
49835;BME280;35729;52.090;13.162;2022-08-14T07:43:21;100672.66;;;24.47;62.68
49835;BME280;35729;52.090;13.162;2022-08-14T07:45:50;100666.78;;;24.53;62.40
49835;BME280;35729;52.090;13.162;2022-08-14T07:48:18;100665.31;;;24.61;61.62
49835;BME280;35729;52.090;13.162;2022-08-14T07:50:49;100667.38;;;24.68;61.73
49835;BME280;35729;52.090;13.162;2022-08-14T07:53:18;100663.31;;;24.74;61.03
49835;BME280;35729;52.090;13.162;2022-08-14T07:55:48;100653.78;;;24.81;60.66
49835;BME280;35729;52.090;13.162;2022-08-14T07:58:16;100659.50;;;24.88;60.41
49835;BME280;35729;52.090;13.162;2022-08-14T08:00:45;100659.84;;;24.95;60.47
49835;BME280;35729;52.090;13.162;2022-08-14T08:03:14;100659.31;;;25.01;59.95
49835;BME280;35729;52.090;13.162;2022-08-14T08:05:44;100652.59;;;25.07;60.03
49835;BME280;35729;52.090;13.162;2022-08-14T08:08:16;100648.50;;;25.12;59.58
49835;BME280;35729;52.090;13.162;2022-08-14T08:10:45;100645.44;;;25.17;59.35
49835;BME280;35729;52.090;13.162;2022-08-14T08:13:17;100658.22;;;25.25;59.33
49835;BME280;35729;52.090;13.162;2022-08-14T08:15:48;100658.56;;;25.31;59.33
49835;BME280;35729;52.090;13.162;2022-08-14T08:18:19;100657.94;;;25.39;58.98
49835;BME280;35729;52.090;13.162;2022-08-14T08:20:50;100658.38;;;25.44;58.52
49835;BME280;35729;52.090;13.162;2022-08-14T08:23:23;100647.09;;;25.50;58.17
49835;BME280;35729;52.090;13.162;2022-08-14T08:25:54;100644.72;;;25.57;57.48
49835;BME280;35729;52.090;13.162;2022-08-14T08:28:24;100646.88;;;25.63;56.94
49835;BME280;35729;52.090;13.162;2022-08-14T08:30:55;100644.50;;;25.70;56.37
49835;BME280;35729;52.090;13.162;2022-08-14T08:33:25;100648.63;;;25.74;55.89
49835;BME280;35729;52.090;13.162;2022-08-14T08:35:57;100659.56;;;25.82;55.80
49835;BME280;35729;52.090;13.162;2022-08-14T08:38:31;100648.28;;;25.89;56.03
49835;BME280;35729;52.090;13.162;2022-08-14T08:41:00;100650.28;;;25.96;55.65
49835;BME280;35729;52.090;13.162;2022-08-14T08:43:35;100640.44;;;26.07;55.54
49835;BME280;35729;52.090;13.162;2022-08-14T08:46:06;100629.72;;;26.16;55.17
49835;BME280;35729;52.090;13.162;2022-08-14T08:48:43;100629.84;;;26.25;55.37
49835;BME280;35729;52.090;13.162;2022-08-14T08:51:23;100630.03;;;26.33;54.82
49835;BME280;35729;52.090;13.162;2022-08-14T08:53:59;100626.38;;;26.44;54.82
49835;BME280;35729;52.090;13.162;2022-08-14T08:56:39;100622.97;;;26.52;54.11
49835;BME280;35729;52.090;13.162;2022-08-14T08:59:22;100617.03;;;26.58;54.21
49835;BME280;35729;52.090;13.162;2022-08-14T09:01:52;100619.28;;;26.62;53.94
49835;BME280;35729;52.090;13.162;2022-08-14T09:04:23;100618.03;;;26.66;53.91
49835;BME280;35729;52.090;13.162;2022-08-14T09:06:53;100606.69;;;26.73;53.55
49835;BME280;35729;52.090;13.162;2022-08-14T09:09:26;100618.78;;;26.78;53.04
49835;BME280;35729;52.090;13.162;2022-08-14T09:11:57;100602.19;;;26.83;52.83
49835;BME280;35729;52.090;13.162;2022-08-14T09:14:26;100610.53;;;26.90;52.51
49835;BME280;35729;52.090;13.162;2022-08-14T09:16:57;100603.72;;;26.95;52.21
49835;BME280;35729;52.090;13.162;2022-08-14T09:19:26;100606.56;;;27.04;51.84
49835;BME280;35729;52.090;13.162;2022-08-14T09:21:55;100611.06;;;27.13;51.69
49835;BME280;35729;52.090;13.162;2022-08-14T09:24:26;100610.34;;;27.21;51.35
49835;BME280;35729;52.090;13.162;2022-08-14T09:26:56;100600.53;;;27.29;51.09
49835;BME280;35729;52.090;13.162;2022-08-14T09:29:25;100596.28;;;27.37;50.64
49835;BME280;35729;52.090;13.162;2022-08-14T09:31:55;100593.88;;;27.43;50.50
49835;BME280;35729;52.090;13.162;2022-08-14T09:34:43;100592.28;;;27.51;50.39
49835;BME280;35729;52.090;13.162;2022-08-14T09:37:29;100593.41;;;27.58;49.04
49835;BME280;35729;52.090;13.162;2022-08-14T09:40:04;100589.25;;;27.63;49.25
49835;BME280;35729;52.090;13.162;2022-08-14T09:42:49;100584.97;;;27.71;48.86
49835;BME280;35729;52.090;13.162;2022-08-14T09:45:21;100580.81;;;27.76;47.88
49835;BME280;35729;52.090;13.162;2022-08-14T09:47:57;100573.16;;;27.82;47.38
49835;BME280;35729;52.090;13.162;2022-08-14T09:50:27;100577.41;;;27.84;46.64
49835;BME280;35729;52.090;13.162;2022-08-14T09:53:05;100560.75;;;27.89;46.39
49835;BME280;35729;52.090;13.162;2022-08-14T09:55:37;100567.41;;;27.94;46.04
49835;BME280;35729;52.090;13.162;2022-08-14T09:58:10;100563.94;;;28.02;46.44
49835;BME280;35729;52.090;13.162;2022-08-14T10:00:44;100550.56;;;28.10;46.12
49835;BME280;35729;52.090;13.162;2022-08-14T10:03:24;100549.81;;;28.18;45.93
49835;BME280;35729;52.090;13.162;2022-08-14T10:06:07;100545.31;;;28.27;45.98
49835;BME280;35729;52.090;13.162;2022-08-14T10:08:41;100530.22;;;28.34;45.78
49835;BME280;35729;52.090;13.162;2022-08-14T10:11:20;100527.91;;;28.39;45.32
49835;BME280;35729;52.090;13.162;2022-08-14T10:13:50;100530.53;;;28.49;45.25
49835;BME280;35729;52.090;13.162;2022-08-14T10:16:20;100518.78;;;28.58;45.43
49835;BME280;35729;52.090;13.162;2022-08-14T10:19:05;100521.44;;;28.68;44.80
49835;BME280;35729;52.090;13.162;2022-08-14T10:21:36;100518.47;;;28.80;43.86
49835;BME280;35729;52.090;13.162;2022-08-14T10:24:08;100502.34;;;28.88;43.52
49835;BME280;35729;52.090;13.162;2022-08-14T10:26:40;100507.94;;;28.95;42.55
49835;BME280;35729;52.090;13.162;2022-08-14T10:29:09;100503.44;;;29.03;42.50
49835;BME280;35729;52.090;13.162;2022-08-14T10:31:41;100500.78;;;29.12;40.95
49835;BME280;35729;52.090;13.162;2022-08-14T10:34:12;100488.03;;;29.22;41.85
49835;BME280;35729;52.090;13.162;2022-08-14T10:36:42;100490.94;;;29.29;41.60
49835;BME280;35729;52.090;13.162;2022-08-14T10:39:17;100482.84;;;29.37;40.37
49835;BME280;35729;52.090;13.162;2022-08-14T10:41:48;100475.63;;;29.46;41.03
49835;BME280;35729;52.090;13.162;2022-08-14T10:44:21;100466.69;;;29.53;40.53
49835;BME280;35729;52.090;13.162;2022-08-14T10:46:50;100474.31;;;29.58;40.01
49835;BME280;35729;52.090;13.162;2022-08-14T10:49:24;100465.72;;;29.63;40.87
49835;BME280;35729;52.090;13.162;2022-08-14T10:51:56;100463.38;;;29.68;40.83
49835;BME280;35729;52.090;13.162;2022-08-14T10:54:35;100460.19;;;29.72;40.42
49835;BME280;35729;52.090;13.162;2022-08-14T10:57:15;100460.38;;;29.79;38.95
49835;BME280;35729;52.090;13.162;2022-08-14T10:59:48;100456.13;;;29.85;39.04
49835;BME280;35729;52.090;13.162;2022-08-14T11:02:22;100449.25;;;29.90;39.03
49835;BME280;35729;52.090;13.162;2022-08-14T11:05:12;100441.66;;;29.94;38.17
49835;BME280;35729;52.090;13.162;2022-08-14T11:07:54;100448.06;;;30.01;38.34
49835;BME280;35729;52.090;13.162;2022-08-14T11:10:26;100440.97;;;30.09;38.48
49835;BME280;35729;52.090;13.162;2022-08-14T11:13:13;100441.66;;;30.19;37.58
49835;BME280;35729;52.090;13.162;2022-08-14T11:15:43;100436.06;;;30.29;37.41
49835;BME280;35729;52.090;13.162;2022-08-14T11:18:13;100435.91;;;30.38;37.14
49835;BME280;35729;52.090;13.162;2022-08-14T11:20:47;100432.19;;;30.48;36.74
49835;BME280;35729;52.090;13.162;2022-08-14T11:23:21;100434.38;;;30.61;36.36
49835;BME280;35729;52.090;13.162;2022-08-14T11:25:55;100428.44;;;30.74;35.83
49835;BME280;35729;52.090;13.162;2022-08-14T11:28:30;100439.53;;;30.87;36.43
49835;BME280;35729;52.090;13.162;2022-08-14T11:31:01;100443.41;;;31.01;36.07
49835;BME280;35729;52.090;13.162;2022-08-14T11:33:30;100436.97;;;31.10;36.23
49835;BME280;35729;52.090;13.162;2022-08-14T11:36:02;100426.91;;;31.19;35.98
49835;BME280;35729;52.090;13.162;2022-08-14T11:38:35;100430.28;;;31.29;35.55
49835;BME280;35729;52.090;13.162;2022-08-14T11:41:05;100422.47;;;31.34;35.41
49835;BME280;35729;52.090;13.162;2022-08-14T11:43:40;100418.72;;;31.35;35.31
49835;BME280;35729;52.090;13.162;2022-08-14T11:46:09;100412.63;;;31.33;35.48
49835;BME280;35729;52.090;13.162;2022-08-14T11:48:44;100415.34;;;31.33;35.13
49835;BME280;35729;52.090;13.162;2022-08-14T11:51:15;100416.03;;;31.35;35.58
49835;BME280;35729;52.090;13.162;2022-08-14T11:53:50;100411.56;;;31.43;35.16
49835;BME280;35729;52.090;13.162;2022-08-14T11:56:20;100407.78;;;31.52;35.04
49835;BME280;35729;52.090;13.162;2022-08-14T11:58:54;100392.31;;;31.61;34.34
49835;BME280;35729;52.090;13.162;2022-08-14T12:01:24;100397.50;;;31.71;34.42
49835;BME280;35729;52.090;13.162;2022-08-14T12:04:07;100401.50;;;31.83;33.43
49835;BME280;35729;52.090;13.162;2022-08-14T12:06:44;100384.78;;;31.94;33.54
49835;BME280;35729;52.090;13.162;2022-08-14T12:09:27;100385.03;;;32.08;32.79
49835;BME280;35729;52.090;13.162;2022-08-14T12:11:56;100382.47;;;32.29;32.63
49835;BME280;35729;52.090;13.162;2022-08-14T12:14:27;100391.84;;;32.57;32.04
49835;BME280;35729;52.090;13.162;2022-08-14T12:16:58;100387.00;;;32.82;32.01
49835;BME280;35729;52.090;13.162;2022-08-14T12:19:29;100375.34;;;33.03;31.83
49835;BME280;35729;52.090;13.162;2022-08-14T12:21:57;100381.69;;;33.25;31.23
49835;BME280;35729;52.090;13.162;2022-08-14T12:24:27;100373.78;;;33.45;31.30
49835;BME280;35729;52.090;13.162;2022-08-14T12:26:56;100367.44;;;33.60;30.87
49835;BME280;35729;52.090;13.162;2022-08-14T12:29:27;100360.25;;;33.74;30.06
49835;BME280;35729;52.090;13.162;2022-08-14T12:32:00;100361.34;;;33.80;29.78
49835;BME280;35729;52.090;13.162;2022-08-14T12:34:32;100359.38;;;33.88;29.07
49835;BME280;35729;52.090;13.162;2022-08-14T12:37:03;100359.00;;;33.98;29.01
49835;BME280;35729;52.090;13.162;2022-08-14T12:39:34;100351.78;;;34.12;28.39
49835;BME280;35729;52.090;13.162;2022-08-14T12:42:03;100341.41;;;34.22;27.95
49835;BME280;35729;52.090;13.162;2022-08-14T12:44:39;100338.28;;;34.25;27.93
49835;BME280;35729;52.090;13.162;2022-08-14T12:47:09;100337.47;;;34.25;28.25
49835;BME280;35729;52.090;13.162;2022-08-14T12:49:47;100337.84;;;34.22;28.14
49835;BME280;35729;52.090;13.162;2022-08-14T12:52:26;100333.59;;;34.13;28.04
49835;BME280;35729;52.090;13.162;2022-08-14T12:54:59;100332.91;;;34.04;28.03
49835;BME280;35729;52.090;13.162;2022-08-14T12:57:34;100327.59;;;33.96;28.02
49835;BME280;35729;52.090;13.162;2022-08-14T13:00:09;100319.88;;;33.99;28.10
49835;BME280;35729;52.090;13.162;2022-08-14T13:02:39;100316.81;;;34.09;28.05